createdAt,value
2019-03-13T00:01:23.861Z,2.03
2019-03-13T00:06:31.181Z,1.48
2019-03-13T00:11:40.382Z,2.55
2019-03-13T00:16:49.426Z,2.21
2019-03-13T00:21:58.591Z,2.65
2019-03-13T00:27:07.606Z,2.16
2019-03-13T00:32:16.722Z,3.07
2019-03-13T00:37:25.815Z,2.39
2019-03-13T00:42:34.969Z,3.73
2019-03-13T00:47:44.025Z,3.97
2019-03-13T00:52:53.138Z,2.88
2019-03-13T00:58:02.222Z,2.65
2019-03-13T01:03:11.358Z,3.46
2019-03-13T01:08:20.451Z,2.47
2019-03-13T01:13:29.657Z,1.70
2019-03-13T01:18:38.750Z,1.84
2019-03-13T01:23:47.901Z,2.79
2019-03-13T01:28:56.990Z,3.58
2019-03-13T01:34:06.250Z,2.56
2019-03-13T01:39:15.309Z,3.53
2019-03-13T01:44:24.407Z,2.92
2019-03-13T01:49:33.478Z,3.15
2019-03-13T01:54:42.635Z,2.52
2019-03-13T01:59:51.862Z,4.29
2019-03-13T02:05:01.054Z,3.78
2019-03-13T02:10:10.070Z,2.73
2019-03-13T02:15:19.162Z,3.00
2019-03-13T02:20:28.210Z,1.95
2019-03-13T02:25:37.303Z,1.53
2019-03-13T02:30:46.346Z,2.61
2019-03-13T02:35:55.578Z,2.88
2019-03-13T02:41:04.634Z,5.54
2019-03-13T02:46:13.831Z,4.22
2019-03-13T02:51:22.915Z,3.63
2019-03-13T02:56:32.094Z,4.24
2019-03-13T03:01:41.114Z,4.76
2019-03-13T03:06:50.308Z,3.21
2019-03-13T03:11:59.367Z,4.75
2019-03-13T03:17:08.474Z,3.55
2019-03-13T03:22:17.535Z,2.94
2019-03-13T03:27:26.662Z,2.77
2019-03-13T03:32:35.724Z,2.32
2019-03-13T03:37:44.814Z,2.03
2019-03-13T03:42:53.907Z,3.28
2019-03-13T03:48:03.107Z,2.88
2019-03-13T03:53:12.206Z,4.09
2019-03-13T03:58:21.352Z,3.70
2019-03-13T04:03:30.402Z,3.44
2019-03-13T04:08:39.559Z,2.81
2019-03-13T04:13:48.585Z,3.59
2019-03-13T04:18:57.686Z,2.29
2019-03-13T04:24:06.778Z,2.61
2019-03-13T04:29:15.983Z,3.30
2019-03-13T04:34:25.034Z,3.57
2019-03-13T04:39:34.221Z,3.72
2019-03-13T04:44:43.258Z,4.27
2019-03-13T04:49:52.378Z,4.54
2019-03-13T04:55:01.468Z,5.43
2019-03-13T05:00:10.618Z,3.72
2019-03-13T05:05:19.654Z,3.63
2019-03-13T05:10:28.758Z,4.34
2019-03-13T05:15:37.843Z,3.51
2019-03-13T05:20:47.034Z,3.61
2019-03-13T05:25:56.227Z,3.12
2019-03-13T05:31:05.534Z,3.77
2019-03-13T05:36:16.727Z,3.93
2019-03-13T05:41:23.349Z,3.68
2019-03-13T05:46:32.394Z,3.61
2019-03-13T05:51:41.531Z,5.05
2019-03-13T05:56:50.576Z,4.16
2019-03-13T06:01:59.687Z,3.40
2019-03-13T06:07:08.699Z,3.62
2019-03-13T06:12:17.886Z,3.59
2019-03-13T06:17:26.986Z,4.05
2019-03-13T06:22:36.273Z,4.36
2019-03-13T06:27:46.594Z,4.06
2019-03-13T06:32:54.074Z,3.78
2019-03-13T06:38:03.163Z,3.72
2019-03-13T06:43:12.311Z,3.94
2019-03-13T06:48:21.384Z,4.74
2019-03-13T06:53:30.489Z,4.96
2019-03-13T06:58:39.530Z,4.35
2019-03-13T07:03:48.659Z,3.48
2019-03-13T07:08:57.761Z,3.03
2019-03-13T07:14:06.963Z,3.13
2019-03-13T07:19:16.131Z,3.28
2019-03-13T07:24:25.345Z,3.46
2019-03-13T07:29:35.118Z,3.49
2019-03-13T07:34:44.234Z,3.77
2019-03-13T07:39:53.318Z,4.92
2019-03-13T07:45:02.515Z,4.27
2019-03-13T07:50:11.542Z,5.22
2019-03-13T07:55:20.726Z,4.79
2019-03-13T08:00:29.778Z,5.29
2019-03-13T08:05:39.130Z,4.86
2019-03-13T08:10:48.222Z,5.16
2019-03-13T08:15:57.386Z,5.12
2019-03-13T08:21:06.482Z,5.62
2019-03-13T08:26:15.634Z,5.84
2019-03-13T08:31:24.696Z,4.54
2019-03-13T08:36:33.799Z,3.90
2019-03-13T08:41:42.883Z,3.50
2019-03-13T08:46:52.008Z,3.53
2019-03-13T08:52:01.103Z,4.24
2019-03-13T08:57:10.323Z,4.75
2019-03-13T09:02:19.551Z,3.76
2019-03-13T09:07:28.667Z,3.68
2019-03-13T09:12:38.415Z,4.07
2019-03-13T09:17:49.538Z,3.96
2019-03-13T09:22:48.554Z,3.87
2019-03-13T09:27:57.704Z,4.33
2019-03-13T09:33:06.883Z,4.92
2019-03-13T09:38:16.426Z,4.83
2019-03-13T09:43:25.458Z,4.08
2019-03-13T09:48:34.570Z,4.18
2019-03-13T09:53:43.612Z,4.16
2019-03-13T09:58:52.827Z,4.46
2019-03-13T10:04:01.890Z,3.61
2019-03-13T10:09:10.994Z,3.49
2019-03-13T10:14:20.074Z,3.58
2019-03-13T10:19:29.259Z,3.05
2019-03-13T10:24:38.493Z,2.89
2019-03-13T10:29:47.581Z,3.30
2019-03-13T10:34:56.677Z,3.61
2019-03-13T10:40:05.846Z,3.36
2019-03-13T10:45:14.862Z,3.55
2019-03-13T10:50:24.313Z,2.82
2019-03-13T10:55:33.360Z,2.62
2019-03-13T11:00:42.540Z,2.63
2019-03-13T11:05:51.582Z,2.66
2019-03-13T11:11:00.724Z,2.33
2019-03-13T11:16:09.782Z,2.75
2019-03-13T11:21:18.907Z,2.16
2019-03-13T11:26:27.966Z,1.75
2019-03-13T11:31:37.160Z,1.93
2019-03-13T11:36:46.177Z,1.96
2019-03-13T11:41:55.290Z,2.79
2019-03-13T11:47:04.346Z,2.42
2019-03-13T11:52:13.442Z,2.51
2019-03-13T11:57:22.532Z,3.12
2019-03-13T12:02:31.718Z,3.49
2019-03-13T12:07:43.722Z,2.97
2019-03-13T12:12:49.823Z,2.91
2019-03-13T12:17:58.874Z,2.84
2019-03-13T12:23:07.985Z,3.54
2019-03-13T12:28:17.067Z,2.94
2019-03-13T12:33:26.209Z,2.32
2019-03-13T12:38:35.258Z,3.01
2019-03-13T12:43:44.378Z,3.22
2019-03-13T12:48:53.414Z,3.12
2019-03-13T12:54:02.584Z,2.70
2019-03-13T12:59:11.671Z,3.16
2019-03-13T13:04:20.866Z,2.80
2019-03-13T13:09:41.691Z,3.02
2019-03-13T13:14:30.742Z,3.79
2019-03-13T13:19:39.794Z,3.31
2019-03-13T13:24:48.928Z,2.86
2019-03-13T13:29:58.010Z,2.64
2019-03-13T13:35:07.173Z,2.52
2019-03-13T13:40:16.333Z,2.18
2019-03-13T13:45:26.525Z,3.98
2019-03-13T13:50:25.517Z,3.28
2019-03-13T13:55:34.629Z,3.24
2019-03-13T14:00:43.759Z,3.40
2019-03-13T14:05:52.897Z,3.23
2019-03-13T14:11:01.986Z,3.97
2019-03-13T14:16:11.130Z,4.76
2019-03-13T14:21:20.210Z,3.81
2019-03-13T14:26:29.321Z,4.34
2019-03-13T14:31:38.374Z,4.70
2019-03-13T14:36:47.931Z,3.74
2019-03-13T14:41:56.970Z,3.26
2019-03-13T14:47:06.066Z,2.64
2019-03-13T14:52:15.097Z,3.21
2019-03-13T14:57:24.214Z,3.41
2019-03-13T15:02:33.301Z,3.13
2019-03-13T15:07:42.621Z,3.29
2019-03-13T15:12:51.823Z,3.10
2019-03-13T15:18:01.260Z,2.60
2019-03-13T15:23:10.301Z,3.05
2019-03-13T15:28:19.387Z,3.00
2019-03-13T15:33:28.448Z,3.52
2019-03-13T15:38:37.547Z,2.89
2019-03-13T15:43:46.686Z,2.85
2019-03-13T15:48:55.769Z,2.91
2019-03-13T15:54:04.859Z,3.79
2019-03-13T15:59:14.053Z,4.19
2019-03-13T16:04:23.152Z,3.97
2019-03-13T16:09:32.307Z,4.31
2019-03-13T16:14:41.374Z,4.11
2019-03-13T16:19:50.531Z,4.76
2019-03-13T16:24:59.592Z,4.11
2019-03-13T16:30:09.099Z,4.42
2019-03-13T16:35:18.205Z,4.18
2019-03-13T16:40:27.311Z,2.72
2019-03-13T16:45:36.343Z,2.73
2019-03-13T16:50:45.654Z,3.21
2019-03-13T16:55:54.752Z,3.32
2019-03-13T17:01:03.968Z,3.92
2019-03-13T17:06:13.062Z,3.57
2019-03-13T17:11:22.240Z,3.56
2019-03-13T17:16:31.256Z,2.95
2019-03-13T17:21:40.480Z,3.98
2019-03-13T17:26:49.458Z,3.36
2019-03-13T17:31:58.654Z,2.98
2019-03-13T17:37:07.793Z,3.25
2019-03-13T17:42:16.889Z,3.17
2019-03-13T17:47:25.981Z,3.10
2019-03-13T17:52:35.206Z,2.86
2019-03-13T17:57:44.287Z,2.40
2019-03-13T18:02:53.650Z,2.55
2019-03-13T18:08:02.705Z,2.88
2019-03-13T18:13:11.826Z,2.69
2019-03-13T18:18:20.882Z,2.91
2019-03-13T18:23:30.028Z,3.28
2019-03-13T18:28:39.120Z,3.47
2019-03-13T18:33:48.270Z,4.13
2019-03-13T18:38:57.350Z,3.10
2019-03-13T18:44:06.543Z,2.79
2019-03-13T18:49:15.639Z,2.08
2019-03-13T18:54:24.788Z,2.18
2019-03-13T18:59:33.910Z,2.22
2019-03-13T19:04:43.039Z,2.10
2019-03-13T19:09:52.195Z,2.31
2019-03-13T19:15:01.354Z,2.23
2019-03-13T19:20:12.010Z,1.69
2019-03-13T19:25:17.670Z,1.25
2019-03-13T19:30:26.762Z,1.39
2019-03-13T19:35:36.119Z,1.65
2019-03-13T19:40:45.198Z,1.27
2019-03-13T19:45:54.570Z,1.10
2019-03-13T19:51:03.670Z,0.79
2019-03-13T19:56:12.761Z,0.64
2019-03-13T20:01:21.831Z,0.46
2019-03-13T20:06:41.765Z,0.37
2019-03-13T20:11:39.533Z,0.26
2019-03-13T20:16:48.998Z,0.19
2019-03-13T20:21:58.090Z,0.17
2019-03-13T20:27:07.475Z,0.29
2019-03-13T20:32:16.557Z,0.12
2019-03-13T20:37:25.646Z,0.12
2019-03-13T20:42:34.678Z,0.21
2019-03-13T20:47:43.820Z,0.31
2019-03-13T20:52:52.829Z,0.35
2019-03-13T20:58:01.986Z,0.74
2019-03-13T21:03:11.038Z,0.96
2019-03-13T21:08:20.159Z,0.98
2019-03-13T21:13:29.190Z,1.38
2019-03-13T21:18:38.335Z,1.74
2019-03-13T21:23:47.377Z,1.95
2019-03-13T21:28:56.564Z,2.42
2019-03-13T21:34:05.606Z,2.42
2019-03-13T21:39:14.779Z,2.22
2019-03-13T21:44:23.791Z,3.00
2019-03-13T21:49:34.962Z,3.23
2019-03-13T21:54:33.958Z,3.41
2019-03-13T21:59:43.095Z,3.77
2019-03-13T22:04:52.785Z,4.90
2019-03-13T22:10:02.026Z,5.37
2019-03-13T22:15:11.046Z,5.18
2019-03-13T22:20:20.222Z,5.13
2019-03-13T22:25:29.221Z,4.98
2019-03-13T22:30:38.289Z,5.27
2019-03-13T22:35:47.349Z,4.66
2019-03-13T22:40:56.655Z,4.28
2019-03-13T22:46:05.751Z,4.53
2019-03-13T22:51:14.902Z,4.61
2019-03-13T22:56:23.926Z,3.05
2019-03-13T23:01:33.026Z,3.27
2019-03-13T23:06:42.066Z,3.04
2019-03-13T23:11:51.481Z,3.61
2019-03-13T23:17:00.582Z,3.53
2019-03-13T23:22:09.718Z,3.22
2019-03-13T23:27:18.799Z,3.37
2019-03-13T23:32:27.964Z,3.65
2019-03-13T23:37:37.420Z,3.27
2019-03-13T23:42:45.757Z,3.46
2019-03-13T23:47:54.802Z,3.57
2019-03-13T23:53:03.912Z,3.11
2019-03-13T23:58:12.962Z,3.44
